ロンドン/ヒースロー の空港の天気 - METARとTAF

ロンドン・ヒースロー空港 ( EGLL / LHR ) - イギリス ロンドン
飛行場実況気象(Metar)
観測時間04/27 05:50 BST (04/27 04:50 UTC)
風向・風速不定 2m/s
視程10km以上
天気現象弱い雨
全天の4割程度の雲 雲底高度 1130m
全天の4割程度の雲 雲底高度 1340m
気温8℃
湿度93%
気圧1011hPa
METAREGLL 270450Z AUTO VRB03KT 9999 -RA SCT037 SCT044 08/07 Q1011 TEMPO RA
過去の天気等 Google飛行場航空写真 Wunderground天気予報

過去48時間のMETAR

飛行場予報(TAF)
発表時間: 4/26 23:52 BST (4/26 22:52 UTC)
予報対象時間: 27日1時 BST ~ 28日7時 BST
風向・風速南南西 3m/s
視程10km以上
全天の4割程度の雲 雲底高度 1,370m
27日4時 BST ~ 27日7時 BST に徐々に
風向・風速南東 5m/s
27日4時 BST ~ 27日23時 BST に一時的に
視程4,000m
天気現象雨 しゅう雨
27日4時 BST ~ 27日23時 BST に 確率 30% で一時的に
全天の8割程度の雲 雲底高度 430m
27日23時 BST ~ 28日2時 BST に徐々に
風向・風速北東 3m/s
全天の8割程度の雲 雲底高度 300m
28日1時 BST ~ 28日7時 BST に一時的に
視程5,000m
天気現象弱い雨霧雨
全天の8割程度の雲 雲底高度 210m
28日1時 BST ~ 28日7時 BST に 確率 30% で一時的に
視程4,000m
天気現象雨霧雨
全天の8割程度の雲 雲底高度 120m
TAF EGLL 262252Z 2700/2806 21005KT 9999 SCT045
BECMG 2703/2706 13010KT
TEMPO 2703/2722 4000 RA SHRA
PROB30 TEMPO 2703/2722 BKN014
BECMG 2722/2801 04006KT BKN010
TEMPO 2800/2806 5000 -RADZ BKN007
PROB30 TEMPO 2800/2806 4000 RADZ BKN004